createdAt,value
2019-05-30T00:00:05.679Z,62.72
2019-05-30T00:02:20.170Z,62.70
2019-05-30T00:04:46.928Z,62.79
2019-05-30T00:07:13.639Z,62.56
2019-05-30T00:09:41.499Z,62.52
2019-05-30T00:12:08.240Z,62.51
2019-05-30T00:14:34.970Z,62.36
2019-05-30T00:17:02.923Z,62.10
2019-05-30T00:19:33.667Z,62.39
2019-05-30T00:21:58.653Z,62.62
2019-05-30T00:24:25.601Z,62.67
2019-05-30T00:26:52.354Z,62.69
2019-05-30T00:29:19.080Z,62.66
2019-05-30T00:31:45.983Z,62.72
2019-05-30T00:34:12.704Z,62.75
2019-05-30T00:36:39.440Z,62.72
2019-05-30T00:39:06.819Z,62.41
2019-05-30T00:41:33.664Z,62.27
2019-05-30T00:44:00.396Z,62.49
2019-05-30T00:46:27.299Z,62.38
2019-05-30T00:48:54.035Z,62.34
2019-05-30T00:51:20.751Z,62.77
2019-05-30T00:53:47.669Z,62.92
2019-05-30T00:56:14.377Z,63.06
2019-05-30T00:58:41.103Z,63.23
2019-05-30T01:01:07.969Z,63.35
2019-05-30T01:03:34.716Z,63.26
2019-05-30T01:06:01.420Z,63.28
2019-05-30T01:08:28.269Z,63.54
2019-05-30T01:10:55.055Z,63.65
2019-05-30T01:13:21.778Z,63.46
2019-05-30T01:15:49.273Z,63.45
2019-05-30T01:18:15.979Z,63.39
2019-05-30T01:20:43.840Z,63.40
2019-05-30T01:23:10.719Z,63.26
2019-05-30T01:25:37.468Z,63.29
2019-05-30T01:28:05.552Z,63.39
2019-05-30T01:30:32.781Z,63.36
2019-05-30T01:32:59.692Z,63.51
2019-05-30T01:35:26.515Z,63.69
2019-05-30T01:37:53.299Z,63.35
2019-05-30T01:40:20.050Z,63.44
2019-05-30T01:42:46.777Z,63.56
2019-05-30T01:45:15.582Z,63.53
2019-05-30T01:47:42.272Z,63.47
2019-05-30T01:50:09.897Z,63.56
2019-05-30T01:52:36.992Z,63.71
2019-05-30T01:55:08.855Z,63.84
2019-05-30T01:57:36.371Z,63.86
2019-05-30T02:00:20.873Z,63.80
2019-05-30T02:02:42.491Z,63.56
2019-05-30T02:05:09.944Z,63.73
2019-05-30T02:07:36.718Z,63.84
2019-05-30T02:10:10.074Z,63.91
2019-05-30T02:12:36.928Z,63.80
2019-05-30T02:15:07.649Z,63.81
2019-05-30T02:17:34.714Z,63.66
2019-05-30T02:20:01.901Z,63.75
2019-05-30T02:22:28.808Z,63.51
2019-05-30T02:24:55.539Z,63.52
2019-05-30T02:27:22.249Z,63.91
2019-05-30T02:29:49.163Z,63.80
2019-05-30T02:32:15.908Z,63.39
2019-05-30T02:34:42.637Z,63.41
2019-05-30T02:37:10.757Z,63.66
2019-05-30T02:39:38.050Z,63.83
2019-05-30T02:42:05.250Z,63.49
2019-05-30T02:44:32.522Z,63.45
2019-05-30T02:47:01.272Z,63.78
2019-05-30T02:49:27.761Z,63.67
2019-05-30T02:51:54.776Z,63.41
2019-05-30T02:54:21.568Z,63.49
2019-05-30T02:56:48.309Z,63.37
2019-05-30T02:59:15.204Z,63.49
2019-05-30T03:01:59.029Z,63.65
2019-05-30T03:04:12.731Z,63.72
2019-05-30T03:06:39.570Z,63.92
2019-05-30T03:09:08.374Z,63.74
2019-05-30T03:11:35.498Z,63.74
2019-05-30T03:14:04.474Z,63.82
2019-05-30T03:16:31.604Z,63.74
2019-05-30T03:18:58.671Z,63.59
2019-05-30T03:21:25.592Z,63.45
2019-05-30T03:23:52.431Z,63.37
2019-05-30T03:26:19.301Z,63.23
2019-05-30T03:28:46.235Z,63.47
2019-05-30T03:31:26.651Z,63.60
2019-05-30T03:33:44.879Z,63.73
2019-05-30T03:36:24.129Z,63.69
2019-05-30T03:38:40.490Z,63.70
2019-05-30T03:41:09.086Z,63.55
2019-05-30T03:43:36.916Z,63.46
2019-05-30T03:46:10.578Z,63.46
2019-05-30T03:48:41.789Z,63.45
2019-05-30T03:51:14.911Z,63.43
2019-05-30T03:53:41.975Z,63.32
2019-05-30T03:56:20.275Z,63.36
2019-05-30T03:59:08.081Z,63.25
2019-05-30T04:01:41.013Z,63.23
2019-05-30T04:04:25.471Z,63.21
2019-05-30T04:07:00.341Z,63.29
2019-05-30T04:09:30.202Z,63.59
2019-05-30T04:12:29.867Z,63.56
2019-05-30T04:15:09.930Z,63.36
2019-05-30T04:17:36.751Z,63.62
2019-05-30T04:20:07.133Z,63.79
2019-05-30T04:22:34.034Z,63.67
2019-05-30T04:25:00.976Z,63.57
2019-05-30T04:27:27.720Z,63.44
2019-05-30T04:29:54.493Z,63.33
2019-05-30T04:32:21.306Z,63.29
2019-05-30T04:34:48.050Z,63.44
2019-05-30T04:37:14.976Z,63.33
2019-05-30T04:39:42.438Z,63.14
2019-05-30T04:42:09.406Z,63.68
2019-05-30T04:44:37.774Z,63.56
2019-05-30T04:47:04.669Z,63.38
2019-05-30T04:49:31.440Z,63.54
2019-05-30T04:51:58.199Z,63.50
2019-05-30T04:54:25.097Z,63.41
2019-05-30T04:56:51.882Z,63.24
2019-05-30T04:59:19.830Z,63.36
2019-05-30T05:01:52.854Z,63.45
2019-05-30T05:04:19.656Z,63.50
2019-05-30T05:06:46.386Z,63.38
2019-05-30T05:09:17.993Z,63.59
2019-05-30T05:11:44.996Z,63.87
2019-05-30T05:14:12.327Z,63.81
2019-05-30T05:16:39.410Z,63.72
2019-05-30T05:19:06.173Z,63.57
2019-05-30T05:21:34.793Z,63.41
2019-05-30T05:24:02.156Z,63.35
2019-05-30T05:26:31.447Z,63.19
2019-05-30T05:29:01.566Z,63.14
2019-05-30T05:31:30.414Z,63.06
2019-05-30T05:33:57.522Z,63.02
2019-05-30T05:36:25.225Z,62.98
2019-05-30T05:38:52.223Z,62.97
2019-05-30T05:41:20.164Z,62.86
2019-05-30T05:43:46.931Z,62.63
2019-05-30T05:46:13.812Z,62.36
2019-05-30T05:48:40.558Z,62.21
2019-05-30T05:51:07.296Z,61.98
2019-05-30T05:53:34.177Z,61.87
2019-05-30T05:56:00.927Z,60.27
2019-05-30T05:58:47.543Z,59.04
2019-05-30T06:01:14.263Z,58.39
2019-05-30T06:03:40.994Z,57.82
2019-05-30T06:06:07.853Z,57.03
2019-05-30T06:08:34.601Z,54.99
2019-05-30T06:11:01.352Z,54.94
2019-05-30T06:13:29.060Z,54.92
2019-05-30T06:15:57.799Z,53.72
2019-05-30T06:18:24.544Z,54.32
2019-05-30T06:20:51.443Z,53.10
2019-05-30T06:23:19.418Z,52.92
2019-05-30T06:25:46.208Z,52.56
2019-05-30T06:28:13.082Z,52.10
2019-05-30T06:30:39.820Z,52.09
2019-05-30T06:33:06.579Z,51.74
2019-05-30T06:35:33.469Z,52.25
2019-05-30T06:38:00.179Z,51.24
2019-05-30T06:40:30.368Z,50.94
2019-05-30T06:42:55.673Z,50.10
2019-05-30T06:45:25.611Z,50.16
2019-05-30T06:47:52.737Z,49.85
2019-05-30T06:50:20.602Z,50.12
2019-05-30T06:52:47.475Z,50.75
2019-05-30T06:55:14.318Z,49.93
2019-05-30T06:57:41.086Z,49.77
2019-05-30T07:00:08.229Z,49.48
2019-05-30T07:02:34.972Z,49.69
2019-05-30T07:05:03.024Z,50.88
2019-05-30T07:07:31.237Z,51.73
2019-05-30T07:09:58.149Z,51.93
2019-05-30T07:12:27.142Z,51.22
2019-05-30T07:14:53.614Z,50.92
2019-05-30T07:17:20.395Z,50.82
2019-05-30T07:19:47.317Z,49.77
2019-05-30T07:22:14.041Z,48.99
2019-05-30T07:24:40.799Z,48.40
2019-05-30T07:27:07.697Z,49.21
2019-05-30T07:29:34.451Z,47.99
2019-05-30T07:32:01.208Z,48.56
2019-05-30T07:34:28.203Z,48.49
2019-05-30T07:36:54.910Z,48.69
2019-05-30T07:39:21.660Z,47.91
2019-05-30T07:42:04.969Z,47.66
2019-05-30T07:44:17.121Z,48.13
2019-05-30T07:46:43.861Z,46.75
2019-05-30T07:49:10.752Z,46.94
2019-05-30T07:51:38.846Z,45.87
2019-05-30T07:54:05.765Z,45.15
2019-05-30T07:56:33.466Z,46.07
2019-05-30T07:59:00.279Z,46.30
2019-05-30T08:01:28.278Z,47.70
2019-05-30T08:03:55.213Z,47.04
2019-05-30T08:06:21.934Z,46.03
2019-05-30T08:08:48.669Z,45.67
2019-05-30T08:11:15.546Z,44.73
2019-05-30T08:13:42.270Z,45.27
2019-05-30T08:16:09.022Z,45.80
2019-05-30T08:18:35.970Z,45.07
2019-05-30T08:21:02.681Z,42.37
2019-05-30T08:23:30.094Z,44.21
2019-05-30T08:25:57.115Z,44.86
2019-05-30T08:28:23.834Z,44.18
2019-05-30T08:30:50.669Z,43.32
2019-05-30T08:33:17.557Z,43.19
2019-05-30T08:35:49.790Z,43.73
2019-05-30T08:38:12.817Z,43.99
2019-05-30T08:40:39.717Z,42.66
2019-05-30T08:43:06.473Z,42.35
2019-05-30T08:45:33.630Z,42.44
2019-05-30T08:48:00.660Z,42.35
2019-05-30T08:50:27.371Z,41.16
2019-05-30T08:52:54.116Z,39.70
2019-05-30T08:55:20.906Z,41.15
2019-05-30T08:57:50.152Z,42.99
2019-05-30T09:00:17.866Z,41.09
2019-05-30T09:02:45.151Z,41.60
2019-05-30T09:05:12.328Z,41.24
2019-05-30T09:07:40.187Z,39.73
2019-05-30T09:10:08.943Z,40.70
2019-05-30T09:12:36.429Z,41.17
2019-05-30T09:15:09.139Z,41.53
2019-05-30T09:17:35.955Z,40.46
2019-05-30T09:20:05.741Z,39.15
2019-05-30T09:22:32.461Z,40.12
2019-05-30T09:24:59.329Z,40.91
2019-05-30T09:27:26.071Z,39.47
2019-05-30T09:29:52.846Z,40.04
2019-05-30T09:32:19.814Z,39.51
2019-05-30T09:34:47.067Z,40.46
2019-05-30T09:37:13.817Z,40.03
2019-05-30T09:39:41.533Z,41.66
2019-05-30T09:42:08.422Z,42.02
2019-05-30T09:44:35.171Z,40.90
2019-05-30T09:47:02.050Z,41.03
2019-05-30T09:49:28.797Z,38.75
2019-05-30T09:51:55.522Z,39.17
2019-05-30T09:54:22.407Z,39.92
2019-05-30T09:56:49.117Z,39.90
2019-05-30T09:59:15.838Z,40.87
2019-05-30T10:01:44.214Z,39.69
2019-05-30T10:04:11.054Z,37.59
2019-05-30T10:06:37.767Z,39.95
2019-05-30T10:09:08.063Z,39.72
2019-05-30T10:11:34.791Z,39.08
2019-05-30T10:14:01.512Z,39.78
2019-05-30T10:16:28.472Z,38.20
2019-05-30T10:18:55.219Z,38.33
2019-05-30T10:21:22.012Z,38.65
2019-05-30T10:23:49.389Z,37.73
2019-05-30T10:26:16.338Z,37.22
2019-05-30T10:28:43.064Z,38.15
2019-05-30T10:31:09.989Z,37.64
2019-05-30T10:33:36.709Z,37.52
2019-05-30T10:36:03.701Z,37.91
2019-05-30T10:38:30.523Z,38.15
2019-05-30T10:40:57.271Z,38.46
2019-05-30T10:43:24.056Z,36.47
2019-05-30T10:45:51.232Z,37.58
2019-05-30T10:48:20.859Z,36.83
2019-05-30T10:50:48.575Z,36.12
2019-05-30T10:53:15.532Z,36.06
2019-05-30T10:55:42.260Z,37.01
2019-05-30T10:58:09.081Z,37.58
2019-05-30T11:00:53.869Z,37.57
2019-05-30T11:03:24.266Z,36.26
2019-05-30T11:06:17.860Z,35.44
2019-05-30T11:08:47.915Z,37.45
2019-05-30T11:11:15.715Z,34.00
2019-05-30T11:13:42.579Z,35.38
2019-05-30T11:16:09.315Z,35.08
2019-05-30T11:18:36.134Z,36.32
2019-05-30T11:21:03.306Z,36.94
2019-05-30T11:23:30.044Z,38.13
2019-05-30T11:25:56.796Z,35.50
2019-05-30T11:28:23.640Z,35.98
2019-05-30T11:30:50.666Z,34.74
2019-05-30T11:33:17.522Z,33.56
2019-05-30T11:35:44.481Z,35.45
2019-05-30T11:38:11.118Z,35.25
2019-05-30T11:40:38.966Z,36.00
2019-05-30T11:43:05.785Z,35.77
2019-05-30T11:45:42.867Z,35.54
2019-05-30T11:48:12.787Z,35.09
2019-05-30T11:50:39.500Z,34.15
2019-05-30T11:53:06.224Z,35.35
2019-05-30T11:55:33.124Z,36.15
2019-05-30T11:58:00.408Z,35.74
2019-05-30T12:00:27.811Z,35.97
2019-05-30T12:02:54.696Z,35.58
2019-05-30T12:05:21.953Z,35.89
2019-05-30T12:07:48.689Z,36.18
2019-05-30T12:10:17.500Z,34.36
2019-05-30T12:12:44.246Z,33.92
2019-05-30T12:15:11.687Z,34.54
2019-05-30T12:17:38.577Z,36.14
2019-05-30T12:20:06.347Z,35.01
2019-05-30T12:22:33.115Z,35.22
2019-05-30T12:25:00.429Z,36.20
2019-05-30T12:27:27.453Z,36.59
2019-05-30T12:29:56.217Z,36.24
2019-05-30T12:32:23.199Z,36.45
2019-05-30T12:34:49.943Z,36.15
2019-05-30T12:37:16.659Z,35.86
2019-05-30T12:39:43.529Z,36.25
2019-05-30T12:42:10.254Z,36.15
2019-05-30T12:44:37.020Z,36.39
2019-05-30T12:47:04.037Z,36.41
2019-05-30T12:49:30.752Z,36.42
2019-05-30T12:51:58.367Z,36.90
2019-05-30T12:54:25.338Z,37.53
2019-05-30T12:56:52.066Z,37.75
2019-05-30T12:59:18.775Z,37.28
2019-05-30T13:01:45.629Z,35.57
2019-05-30T13:04:12.576Z,37.43
2019-05-30T13:06:39.313Z,35.74
2019-05-30T13:09:08.406Z,36.67
2019-05-30T13:11:36.535Z,36.96
2019-05-30T13:14:04.672Z,36.92
2019-05-30T13:16:31.650Z,36.82
2019-05-30T13:18:58.389Z,36.50
2019-05-30T13:21:28.273Z,35.43
2019-05-30T13:23:55.536Z,36.09
2019-05-30T13:26:22.357Z,37.36
2019-05-30T13:28:49.096Z,36.57
2019-05-30T13:31:15.968Z,35.61
2019-05-30T13:33:42.693Z,35.24
2019-05-30T13:36:09.409Z,36.66
2019-05-30T13:38:36.264Z,36.19
2019-05-30T13:41:03.594Z,36.71
2019-05-30T13:43:30.421Z,36.93
2019-05-30T13:45:58.123Z,38.15
2019-05-30T13:48:24.902Z,37.71
2019-05-30T13:50:51.621Z,37.54
2019-05-30T13:53:18.495Z,37.71
2019-05-30T13:55:45.219Z,37.37
2019-05-30T13:58:11.943Z,37.66
2019-05-30T14:00:39.274Z,38.81
2019-05-30T14:03:06.280Z,38.79
2019-05-30T14:05:33.116Z,38.88
2019-05-30T14:08:00.261Z,38.33
2019-05-30T14:10:26.985Z,37.21
2019-05-30T14:12:53.730Z,36.94
2019-05-30T14:15:20.922Z,38.31
2019-05-30T14:17:47.640Z,39.25
2019-05-30T14:20:16.070Z,39.17
2019-05-30T14:22:42.944Z,39.49
2019-05-30T14:25:11.936Z,38.91
2019-05-30T14:27:38.732Z,37.89
2019-05-30T14:30:08.967Z,38.64
2019-05-30T14:32:35.972Z,39.22
2019-05-30T14:35:08.470Z,38.88
2019-05-30T14:37:35.495Z,38.25
2019-05-30T14:40:08.813Z,36.42
2019-05-30T14:42:35.585Z,35.00
2019-05-30T14:45:08.393Z,36.58
2019-05-30T14:47:35.363Z,38.59
2019-05-30T14:50:08.764Z,37.97
2019-05-30T14:52:36.058Z,37.97
2019-05-30T14:55:06.738Z,37.68
2019-05-30T14:57:33.390Z,36.56
2019-05-30T15:00:00.302Z,35.00
2019-05-30T15:02:27.007Z,33.60
2019-05-30T15:04:53.757Z,33.44
2019-05-30T15:07:20.653Z,33.25
2019-05-30T15:09:47.413Z,33.57
2019-05-30T15:12:14.131Z,33.05
2019-05-30T15:14:41.042Z,32.17
2019-05-30T15:17:07.973Z,31.38
2019-05-30T15:19:34.835Z,31.40
2019-05-30T15:22:01.710Z,31.49
2019-05-30T15:24:28.507Z,33.09
2019-05-30T15:26:55.239Z,31.75
2019-05-30T15:29:22.117Z,32.39
2019-05-30T15:31:48.832Z,31.74
2019-05-30T15:34:16.736Z,31.58
2019-05-30T15:36:43.731Z,31.50
2019-05-30T15:39:10.893Z,32.27
2019-05-30T15:41:37.684Z,33.26
2019-05-30T15:44:04.578Z,32.78
2019-05-30T15:46:31.328Z,33.74
2019-05-30T15:48:58.480Z,33.57
2019-05-30T15:51:25.372Z,34.99
2019-05-30T15:53:52.170Z,35.34
2019-05-30T15:56:19.446Z,35.68
2019-05-30T15:58:46.591Z,34.87
2019-05-30T16:01:13.916Z,35.34
2019-05-30T16:03:40.843Z,35.90
2019-05-30T16:06:07.662Z,36.54
2019-05-30T16:08:34.373Z,36.70
2019-05-30T16:11:01.122Z,36.47
2019-05-30T16:13:28.022Z,37.01
2019-05-30T16:15:54.817Z,36.49
2019-05-30T16:18:22.057Z,36.63
2019-05-30T16:20:49.152Z,36.43
2019-05-30T16:23:16.570Z,37.29
2019-05-30T16:25:43.499Z,37.72
2019-05-30T16:28:10.546Z,36.67
2019-05-30T16:30:38.692Z,37.29
2019-05-30T16:33:05.514Z,37.71
2019-05-30T16:35:32.614Z,36.58
2019-05-30T16:37:59.374Z,36.54
2019-05-30T16:40:26.693Z,36.79
2019-05-30T16:42:53.758Z,37.61
2019-05-30T16:45:24.688Z,37.06
2019-05-30T16:47:49.447Z,37.90
2019-05-30T16:50:20.663Z,38.01
2019-05-30T16:52:47.420Z,37.69
2019-05-30T16:55:15.178Z,37.87
2019-05-30T16:57:42.335Z,37.44
2019-05-30T17:00:12.250Z,37.61
2019-05-30T17:02:38.968Z,37.82
2019-05-30T17:05:08.502Z,38.51
2019-05-30T17:07:35.591Z,37.76
2019-05-30T17:10:21.541Z,37.79
2019-05-30T17:12:35.564Z,38.25
2019-05-30T17:15:08.538Z,39.49
2019-05-30T17:17:35.257Z,39.63
2019-05-30T17:20:05.555Z,40.13
2019-05-30T17:22:32.303Z,40.18
2019-05-30T17:24:59.034Z,39.83
2019-05-30T17:27:26.145Z,38.84
2019-05-30T17:29:53.175Z,39.39
2019-05-30T17:32:19.895Z,38.23
2019-05-30T17:34:46.782Z,37.10
2019-05-30T17:37:13.897Z,39.70
2019-05-30T17:39:40.652Z,40.40
2019-05-30T17:42:07.449Z,40.52
2019-05-30T17:44:36.467Z,40.07
2019-05-30T17:47:03.350Z,40.06
2019-05-30T17:49:30.507Z,40.35
2019-05-30T17:51:57.614Z,41.04
2019-05-30T17:54:25.899Z,41.06
2019-05-30T17:56:52.982Z,41.52
2019-05-30T17:59:20.166Z,42.15
2019-05-30T18:01:46.995Z,43.24
2019-05-30T18:04:13.938Z,43.41
2019-05-30T18:06:40.662Z,43.51
2019-05-30T18:09:07.374Z,42.94
2019-05-30T18:11:34.264Z,42.49
2019-05-30T18:14:03.185Z,40.91
2019-05-30T18:16:29.898Z,41.30
2019-05-30T18:18:56.836Z,41.69
2019-05-30T18:21:23.639Z,42.37
2019-05-30T18:23:50.325Z,42.86
2019-05-30T18:26:17.212Z,43.46
2019-05-30T18:28:44.972Z,43.89
2019-05-30T18:31:11.923Z,43.59
2019-05-30T18:33:38.867Z,43.45
2019-05-30T18:36:05.613Z,43.89
2019-05-30T18:38:32.626Z,44.38
2019-05-30T18:41:10.740Z,44.67
2019-05-30T18:43:28.824Z,43.69
2019-05-30T18:45:55.569Z,43.93
2019-05-30T18:48:23.276Z,43.90
2019-05-30T18:50:50.190Z,44.21
2019-05-30T18:53:16.945Z,44.41
2019-05-30T18:55:44.148Z,46.24
2019-05-30T18:58:11.701Z,46.74
2019-05-30T19:00:38.571Z,46.73
2019-05-30T19:03:05.366Z,47.78
2019-05-30T19:05:32.682Z,48.32
2019-05-30T19:07:59.428Z,48.41
2019-05-30T19:10:27.817Z,48.22
2019-05-30T19:12:54.615Z,48.33
2019-05-30T19:15:21.350Z,48.41
2019-05-30T19:17:48.231Z,48.58
2019-05-30T19:20:17.149Z,48.70
2019-05-30T19:22:43.874Z,48.05
2019-05-30T19:25:11.079Z,48.56
2019-05-30T19:27:38.965Z,48.78
2019-05-30T19:30:09.233Z,48.17
2019-05-30T19:32:36.953Z,48.81
2019-05-30T19:35:09.477Z,49.63
2019-05-30T19:37:37.432Z,49.95
2019-05-30T19:40:05.488Z,50.38
2019-05-30T19:42:33.439Z,50.51
2019-05-30T19:45:00.265Z,50.72
2019-05-30T19:47:28.555Z,50.91
2019-05-30T19:49:55.421Z,51.08
2019-05-30T19:52:22.157Z,51.37
2019-05-30T19:54:49.071Z,51.48
2019-05-30T19:57:15.810Z,52.02
2019-05-30T19:59:42.533Z,52.01
2019-05-30T20:02:09.437Z,52.21
2019-05-30T20:04:36.409Z,51.96
2019-05-30T20:07:03.321Z,51.79
2019-05-30T20:09:30.466Z,52.39
2019-05-30T20:12:03.349Z,52.56
2019-05-30T20:14:26.250Z,52.98
2019-05-30T20:16:53.108Z,53.28
2019-05-30T20:19:19.815Z,53.09
2019-05-30T20:21:46.551Z,53.38
2019-05-30T20:24:13.415Z,53.70
2019-05-30T20:26:40.662Z,53.56
2019-05-30T20:29:07.470Z,53.25
2019-05-30T20:31:35.523Z,53.36
2019-05-30T20:34:02.423Z,53.74
2019-05-30T20:36:29.176Z,54.01
2019-05-30T20:38:56.032Z,54.18
2019-05-30T20:41:22.772Z,54.24
2019-05-30T20:43:49.496Z,53.78
2019-05-30T20:46:23.132Z,53.60
2019-05-30T20:48:45.105Z,53.44
2019-05-30T20:51:20.703Z,53.32
2019-05-30T20:53:41.249Z,53.30
2019-05-30T20:56:08.067Z,53.26
2019-05-30T20:58:35.498Z,53.69
2019-05-30T21:01:02.517Z,54.18
2019-05-30T21:03:29.272Z,54.47
2019-05-30T21:06:16.516Z,54.23
2019-05-30T21:08:44.951Z,53.87
2019-05-30T21:11:11.775Z,53.88
2019-05-30T21:13:40.192Z,54.22
2019-05-30T21:16:09.054Z,54.68
2019-05-30T21:18:35.774Z,54.47
2019-05-30T21:21:02.737Z,54.52
2019-05-30T21:23:29.499Z,54.54
2019-05-30T21:25:56.223Z,54.85
2019-05-30T21:28:23.113Z,55.05
2019-05-30T21:30:49.926Z,54.92
2019-05-30T21:33:16.656Z,54.92
2019-05-30T21:35:43.852Z,55.21
2019-05-30T21:38:10.658Z,55.38
2019-05-30T21:40:38.162Z,54.97
2019-05-30T21:43:07.216Z,55.21
2019-05-30T21:45:33.773Z,55.21
2019-05-30T21:48:00.489Z,55.53
2019-05-30T21:50:27.377Z,55.37
2019-05-30T21:52:54.099Z,54.61
2019-05-30T21:55:20.836Z,54.97
2019-05-30T21:57:48.189Z,55.17
2019-05-30T22:00:38.047Z,55.21
2019-05-30T22:03:04.925Z,55.51
2019-05-30T22:05:31.642Z,54.93
2019-05-30T22:07:58.371Z,54.64
2019-05-30T22:10:25.171Z,54.93
2019-05-30T22:12:51.933Z,55.36
2019-05-30T22:15:18.586Z,55.63
2019-05-30T22:17:45.763Z,55.54
2019-05-30T22:20:12.929Z,55.47
2019-05-30T22:22:39.664Z,55.49
2019-05-30T22:25:06.544Z,55.74
2019-05-30T22:27:34.571Z,55.92
2019-05-30T22:30:01.277Z,56.01
2019-05-30T22:32:28.162Z,55.92
2019-05-30T22:34:54.863Z,55.82
2019-05-30T22:37:21.581Z,55.81
2019-05-30T22:39:48.938Z,55.88
2019-05-30T22:42:15.790Z,55.82
2019-05-30T22:44:42.529Z,55.87
2019-05-30T22:47:09.395Z,56.30
2019-05-30T22:49:36.138Z,56.36
2019-05-30T22:52:03.075Z,56.19
2019-05-30T22:54:29.955Z,55.80
2019-05-30T22:56:56.679Z,55.49
2019-05-30T22:59:23.440Z,56.03
2019-05-30T23:01:51.940Z,56.17
2019-05-30T23:04:18.982Z,56.15
2019-05-30T23:06:46.256Z,56.45
2019-05-30T23:09:13.204Z,56.21
2019-05-30T23:11:39.918Z,56.24
2019-05-30T23:14:06.658Z,56.36
2019-05-30T23:16:33.549Z,56.41
2019-05-30T23:19:00.270Z,56.36
2019-05-30T23:21:27.018Z,56.16
2019-05-30T23:23:53.823Z,56.19
2019-05-30T23:26:20.569Z,56.26
2019-05-30T23:28:47.510Z,55.83
2019-05-30T23:31:14.591Z,56.11
2019-05-30T23:33:41.366Z,56.38
2019-05-30T23:36:08.102Z,56.77
2019-05-30T23:38:34.997Z,56.86
2019-05-30T23:41:01.721Z,57.06
2019-05-30T23:43:28.453Z,57.39
2019-05-30T23:45:55.749Z,57.20
2019-05-30T23:48:22.660Z,56.82
2019-05-30T23:50:49.743Z,57.11
2019-05-30T23:53:16.689Z,57.23
2019-05-30T23:55:43.404Z,57.24
2019-05-30T23:58:10.136Z,57.18
